Osvaldo Cruz, Brazil
Current Conditions -  °F | °C
As of 3:00 AM on Thursday 23 Oct 2014 (Local Time) from SBDN Reporting Station
Clear Clear  
Wind Chill: 64°   Ceiling: Unl
Heat Index: 64°   Visibility: 6mi
Dew Point: 55°   Wind: 16mph
Humidity: 73%   Direction: 110°ESE
Pressure: 30"   Gusts: NA
Location:  21.8°S, 50.88°W
Report Text: SBDN 230500Z 11014KT CAVOK 18/13 Q1016
Loading
Personal Weather Stations






























Interactive Weather Map
Tropical Storm Tracking
New forecast layout! Learn more

10-Day Weather Forecast

Advertisements
Track Severe Weather on mobile